sensor_id;sensor_type;location;lat;lon;timestamp;P1;durP1;ratioP1;P2;durP2;ratioP2
69246;SDS011;56358;56.328;43.992;2023-04-19T00:00:49;31.35;;;15.07;;
69246;SDS011;56358;56.328;43.992;2023-04-19T00:02:51;34.60;;;13.80;;
69246;SDS011;56358;56.328;43.992;2023-04-19T00:04:53;33.50;;;14.40;;
69246;SDS011;56358;56.328;43.992;2023-04-19T00:06:54;28.52;;;13.73;;
69246;SDS011;56358;56.328;43.992;2023-04-19T00:08:56;27.65;;;13.70;;
69246;SDS011;56358;56.328;43.992;2023-04-19T00:10:57;29.25;;;14.40;;
69246;SDS011;56358;56.328;43.992;2023-04-19T00:12:57;31.02;;;14.05;;
69246;SDS011;56358;56.328;43.992;2023-04-19T00:14:58;29.55;;;13.23;;
69246;SDS011;56358;56.328;43.992;2023-04-19T00:16:59;25.80;;;12.65;;
69246;SDS011;56358;56.328;43.992;2023-04-19T00:18:59;28.08;;;13.07;;
69246;SDS011;56358;56.328;43.992;2023-04-19T00:21:00;33.33;;;13.32;;
69246;SDS011;56358;56.328;43.992;2023-04-19T00:23:02;29.17;;;13.45;;
69246;SDS011;56358;56.328;43.992;2023-04-19T00:25:03;34.33;;;13.48;;
69246;SDS011;56358;56.328;43.992;2023-04-19T00:27:06;24.58;;;12.50;;
69246;SDS011;56358;56.328;43.992;2023-04-19T00:29:07;24.20;;;12.43;;
69246;SDS011;56358;56.328;43.992;2023-04-19T00:31:08;28.60;;;13.82;;
69246;SDS011;56358;56.328;43.992;2023-04-19T00:33:09;22.77;;;12.02;;
69246;SDS011;56358;56.328;43.992;2023-04-19T00:35:12;28.50;;;12.80;;
69246;SDS011;56358;56.328;43.992;2023-04-19T00:37:13;27.33;;;12.52;;
69246;SDS011;56358;56.328;43.992;2023-04-19T00:39:14;28.05;;;12.00;;
69246;SDS011;56358;56.328;43.992;2023-04-19T00:41:15;25.92;;;12.60;;
69246;SDS011;56358;56.328;43.992;2023-04-19T00:43:16;30.00;;;12.10;;
69246;SDS011;56358;56.328;43.992;2023-04-19T00:45:19;33.88;;;12.35;;
69246;SDS011;56358;56.328;43.992;2023-04-19T00:47:19;27.00;;;12.98;;
69246;SDS011;56358;56.328;43.992;2023-04-19T00:49:20;25.08;;;12.68;;
69246;SDS011;56358;56.328;43.992;2023-04-19T00:51:22;23.65;;;12.23;;
69246;SDS011;56358;56.328;43.992;2023-04-19T00:53:23;25.90;;;12.93;;
69246;SDS011;56358;56.328;43.992;2023-04-19T00:55:24;21.27;;;12.40;;
69246;SDS011;56358;56.328;43.992;2023-04-19T00:57:24;21.50;;;11.82;;
69246;SDS011;56358;56.328;43.992;2023-04-19T00:59:25;21.88;;;11.57;;
69246;SDS011;56358;56.328;43.992;2023-04-19T01:01:26;26.02;;;12.23;;
69246;SDS011;56358;56.328;43.992;2023-04-19T01:03:28;23.90;;;11.77;;
69246;SDS011;56358;56.328;43.992;2023-04-19T01:05:29;29.35;;;12.40;;
69246;SDS011;56358;56.328;43.992;2023-04-19T01:07:31;35.10;;;13.48;;
69246;SDS011;56358;56.328;43.992;2023-04-19T01:09:34;27.08;;;11.70;;
69246;SDS011;56358;56.328;43.992;2023-04-19T01:11:34;25.73;;;13.27;;
69246;SDS011;56358;56.328;43.992;2023-04-19T01:13:35;27.42;;;12.68;;
69246;SDS011;56358;56.328;43.992;2023-04-19T01:15:36;28.15;;;12.45;;
69246;SDS011;56358;56.328;43.992;2023-04-19T01:17:37;26.17;;;12.38;;
69246;SDS011;56358;56.328;43.992;2023-04-19T01:19:38;26.60;;;13.13;;
69246;SDS011;56358;56.328;43.992;2023-04-19T01:21:39;22.17;;;12.05;;
69246;SDS011;56358;56.328;43.992;2023-04-19T01:23:39;32.03;;;13.30;;
69246;SDS011;56358;56.328;43.992;2023-04-19T01:25:40;27.15;;;12.40;;
69246;SDS011;56358;56.328;43.992;2023-04-19T01:27:41;24.90;;;12.18;;
69246;SDS011;56358;56.328;43.992;2023-04-19T01:29:42;27.10;;;12.73;;
69246;SDS011;56358;56.328;43.992;2023-04-19T01:31:43;28.60;;;13.02;;
69246;SDS011;56358;56.328;43.992;2023-04-19T01:33:48;27.00;;;13.80;;
69246;SDS011;56358;56.328;43.992;2023-04-19T01:35:49;26.92;;;12.82;;
69246;SDS011;56358;56.328;43.992;2023-04-19T01:37:49;32.97;;;14.57;;
69246;SDS011;56358;56.328;43.992;2023-04-19T01:39:52;35.47;;;15.80;;
69246;SDS011;56358;56.328;43.992;2023-04-19T01:41:53;39.58;;;17.75;;
69246;SDS011;56358;56.328;43.992;2023-04-19T01:43:54;33.83;;;17.38;;
69246;SDS011;56358;56.328;43.992;2023-04-19T01:45:54;34.80;;;17.35;;
69246;SDS011;56358;56.328;43.992;2023-04-19T01:47:55;38.90;;;18.15;;
69246;SDS011;56358;56.328;43.992;2023-04-19T01:49:56;38.50;;;18.45;;
69246;SDS011;56358;56.328;43.992;2023-04-19T01:51:56;38.38;;;18.55;;
69246;SDS011;56358;56.328;43.992;2023-04-19T01:53:57;36.58;;;19.00;;
69246;SDS011;56358;56.328;43.992;2023-04-19T01:55:58;42.38;;;19.00;;
69246;SDS011;56358;56.328;43.992;2023-04-19T01:57:58;44.78;;;20.00;;
69246;SDS011;56358;56.328;43.992;2023-04-19T02:00:00;41.53;;;19.33;;
69246;SDS011;56358;56.328;43.992;2023-04-19T02:02:01;40.63;;;20.42;;
69246;SDS011;56358;56.328;43.992;2023-04-19T02:04:02;41.10;;;18.67;;
69246;SDS011;56358;56.328;43.992;2023-04-19T02:06:03;39.65;;;19.88;;
69246;SDS011;56358;56.328;43.992;2023-04-19T02:08:03;39.47;;;18.88;;
69246;SDS011;56358;56.328;43.992;2023-04-19T02:10:05;41.80;;;19.42;;
69246;SDS011;56358;56.328;43.992;2023-04-19T02:12:08;35.40;;;18.30;;
69246;SDS011;56358;56.328;43.992;2023-04-19T02:14:09;33.72;;;19.25;;
69246;SDS011;56358;56.328;43.992;2023-04-19T02:16:10;40.35;;;17.85;;
69246;SDS011;56358;56.328;43.992;2023-04-19T02:18:10;35.65;;;18.02;;
69246;SDS011;56358;56.328;43.992;2023-04-19T02:20:12;36.58;;;19.15;;
69246;SDS011;56358;56.328;43.992;2023-04-19T02:22:13;44.22;;;18.42;;
69246;SDS011;56358;56.328;43.992;2023-04-19T02:24:14;37.67;;;17.95;;
69246;SDS011;56358;56.328;43.992;2023-04-19T02:26:14;37.00;;;18.38;;
69246;SDS011;56358;56.328;43.992;2023-04-19T02:28:15;38.13;;;17.52;;
69246;SDS011;56358;56.328;43.992;2023-04-19T02:30:16;38.33;;;18.02;;
69246;SDS011;56358;56.328;43.992;2023-04-19T02:32:17;35.55;;;18.33;;
69246;SDS011;56358;56.328;43.992;2023-04-19T02:34:17;39.38;;;17.85;;
69246;SDS011;56358;56.328;43.992;2023-04-19T02:36:18;35.80;;;18.73;;
69246;SDS011;56358;56.328;43.992;2023-04-19T02:38:19;41.10;;;18.75;;
69246;SDS011;56358;56.328;43.992;2023-04-19T02:40:20;45.42;;;19.52;;
69246;SDS011;56358;56.328;43.992;2023-04-19T02:42:22;42.72;;;20.10;;
69246;SDS011;56358;56.328;43.992;2023-04-19T02:44:22;35.25;;;18.80;;
69246;SDS011;56358;56.328;43.992;2023-04-19T02:46:23;36.58;;;18.10;;
69246;SDS011;56358;56.328;43.992;2023-04-19T02:48:24;36.35;;;19.63;;
69246;SDS011;56358;56.328;43.992;2023-04-19T02:50:25;38.20;;;19.42;;
69246;SDS011;56358;56.328;43.992;2023-04-19T02:52:26;38.58;;;17.80;;
69246;SDS011;56358;56.328;43.992;2023-04-19T02:54:27;39.33;;;17.77;;
69246;SDS011;56358;56.328;43.992;2023-04-19T02:56:28;37.67;;;18.00;;
69246;SDS011;56358;56.328;43.992;2023-04-19T02:58:28;38.25;;;17.58;;
69246;SDS011;56358;56.328;43.992;2023-04-19T03:00:29;32.67;;;17.30;;
69246;SDS011;56358;56.328;43.992;2023-04-19T03:02:30;36.17;;;17.85;;
69246;SDS011;56358;56.328;43.992;2023-04-19T03:04:31;34.17;;;18.42;;
69246;SDS011;56358;56.328;43.992;2023-04-19T03:06:31;36.28;;;17.42;;
69246;SDS011;56358;56.328;43.992;2023-04-19T03:08:32;36.47;;;16.63;;
69246;SDS011;56358;56.328;43.992;2023-04-19T03:10:33;36.88;;;18.55;;
69246;SDS011;56358;56.328;43.992;2023-04-19T03:12:33;34.47;;;17.50;;
69246;SDS011;56358;56.328;43.992;2023-04-19T03:14:34;36.20;;;17.35;;
69246;SDS011;56358;56.328;43.992;2023-04-19T03:16:35;35.67;;;18.05;;
69246;SDS011;56358;56.328;43.992;2023-04-19T03:18:37;39.22;;;18.67;;
69246;SDS011;56358;56.328;43.992;2023-04-19T03:20:38;33.63;;;18.65;;
69246;SDS011;56358;56.328;43.992;2023-04-19T03:22:39;40.13;;;18.70;;
69246;SDS011;56358;56.328;43.992;2023-04-19T03:24:40;33.88;;;18.67;;
69246;SDS011;56358;56.328;43.992;2023-04-19T03:26:41;38.72;;;18.85;;
69246;SDS011;56358;56.328;43.992;2023-04-19T03:28:41;40.40;;;18.98;;
69246;SDS011;56358;56.328;43.992;2023-04-19T03:30:42;38.15;;;18.90;;
69246;SDS011;56358;56.328;43.992;2023-04-19T03:32:43;35.75;;;18.70;;
69246;SDS011;56358;56.328;43.992;2023-04-19T03:34:44;38.22;;;18.63;;
69246;SDS011;56358;56.328;43.992;2023-04-19T03:36:44;41.30;;;20.27;;
69246;SDS011;56358;56.328;43.992;2023-04-19T03:38:45;38.63;;;20.00;;
69246;SDS011;56358;56.328;43.992;2023-04-19T03:40:46;42.90;;;20.30;;
69246;SDS011;56358;56.328;43.992;2023-04-19T03:42:47;45.05;;;21.23;;
69246;SDS011;56358;56.328;43.992;2023-04-19T03:44:47;40.03;;;20.23;;
69246;SDS011;56358;56.328;43.992;2023-04-19T03:46:48;42.47;;;20.80;;
69246;SDS011;56358;56.328;43.992;2023-04-19T03:48:49;42.05;;;21.02;;
69246;SDS011;56358;56.328;43.992;2023-04-19T03:50:50;40.13;;;20.15;;
69246;SDS011;56358;56.328;43.992;2023-04-19T03:52:51;40.30;;;19.73;;
69246;SDS011;56358;56.328;43.992;2023-04-19T03:54:52;36.78;;;19.70;;
69246;SDS011;56358;56.328;43.992;2023-04-19T03:56:52;36.55;;;20.38;;
69246;SDS011;56358;56.328;43.992;2023-04-19T03:58:53;38.88;;;19.17;;
69246;SDS011;56358;56.328;43.992;2023-04-19T04:00:54;44.90;;;20.17;;
69246;SDS011;56358;56.328;43.992;2023-04-19T04:02:55;43.80;;;20.92;;
69246;SDS011;56358;56.328;43.992;2023-04-19T04:04:56;39.22;;;19.48;;
69246;SDS011;56358;56.328;43.992;2023-04-19T04:06:57;38.47;;;19.77;;
69246;SDS011;56358;56.328;43.992;2023-04-19T04:08:57;40.35;;;19.92;;
69246;SDS011;56358;56.328;43.992;2023-04-19T04:10:58;35.42;;;18.88;;
69246;SDS011;56358;56.328;43.992;2023-04-19T04:12:59;38.00;;;19.88;;
69246;SDS011;56358;56.328;43.992;2023-04-19T04:14:59;41.00;;;19.48;;
69246;SDS011;56358;56.328;43.992;2023-04-19T04:17:00;32.75;;;16.48;;
69246;SDS011;56358;56.328;43.992;2023-04-19T04:19:01;36.33;;;16.95;;
69246;SDS011;56358;56.328;43.992;2023-04-19T04:21:02;28.20;;;14.55;;
69246;SDS011;56358;56.328;43.992;2023-04-19T04:23:02;26.50;;;13.88;;
69246;SDS011;56358;56.328;43.992;2023-04-19T04:25:03;25.98;;;14.38;;
69246;SDS011;56358;56.328;43.992;2023-04-19T04:27:04;27.55;;;13.23;;
69246;SDS011;56358;56.328;43.992;2023-04-19T04:29:06;22.30;;;12.00;;
69246;SDS011;56358;56.328;43.992;2023-04-19T04:31:07;23.08;;;12.15;;
69246;SDS011;56358;56.328;43.992;2023-04-19T04:33:09;25.15;;;13.00;;
69246;SDS011;56358;56.328;43.992;2023-04-19T04:35:11;23.17;;;12.50;;
69246;SDS011;56358;56.328;43.992;2023-04-19T04:37:12;24.25;;;11.90;;
69246;SDS011;56358;56.328;43.992;2023-04-19T04:39:12;25.35;;;12.82;;
69246;SDS011;56358;56.328;43.992;2023-04-19T04:41:13;24.65;;;13.35;;
69246;SDS011;56358;56.328;43.992;2023-04-19T04:43:15;24.55;;;12.13;;
69246;SDS011;56358;56.328;43.992;2023-04-19T04:45:16;23.17;;;13.07;;
69246;SDS011;56358;56.328;43.992;2023-04-19T04:47:17;23.42;;;12.80;;
69246;SDS011;56358;56.328;43.992;2023-04-19T04:49:18;27.45;;;14.13;;
69246;SDS011;56358;56.328;43.992;2023-04-19T04:51:19;40.72;;;19.67;;
69246;SDS011;56358;56.328;43.992;2023-04-19T04:53:20;25.25;;;13.73;;
69246;SDS011;56358;56.328;43.992;2023-04-19T04:55:20;32.55;;;16.80;;
69246;SDS011;56358;56.328;43.992;2023-04-19T04:57:21;32.90;;;16.35;;
69246;SDS011;56358;56.328;43.992;2023-04-19T04:59:22;33.95;;;16.73;;
69246;SDS011;56358;56.328;43.992;2023-04-19T05:01:22;31.55;;;16.58;;
69246;SDS011;56358;56.328;43.992;2023-04-19T05:03:24;36.85;;;15.88;;
69246;SDS011;56358;56.328;43.992;2023-04-19T05:05:26;28.40;;;16.05;;
69246;SDS011;56358;56.328;43.992;2023-04-19T05:07:27;30.60;;;15.45;;
69246;SDS011;56358;56.328;43.992;2023-04-19T05:09:27;27.60;;;15.73;;
69246;SDS011;56358;56.328;43.992;2023-04-19T05:11:28;29.90;;;16.10;;
69246;SDS011;56358;56.328;43.992;2023-04-19T05:13:29;32.28;;;16.77;;
69246;SDS011;56358;56.328;43.992;2023-04-19T05:15:29;32.33;;;16.63;;
69246;SDS011;56358;56.328;43.992;2023-04-19T05:17:30;26.90;;;15.75;;
69246;SDS011;56358;56.328;43.992;2023-04-19T05:19:31;38.53;;;17.13;;
69246;SDS011;56358;56.328;43.992;2023-04-19T05:21:32;34.05;;;16.52;;
69246;SDS011;56358;56.328;43.992;2023-04-19T05:23:33;35.08;;;17.48;;
69246;SDS011;56358;56.328;43.992;2023-04-19T05:25:34;31.02;;;17.27;;
69246;SDS011;56358;56.328;43.992;2023-04-19T05:27:35;37.60;;;17.30;;
69246;SDS011;56358;56.328;43.992;2023-04-19T05:29:35;31.90;;;16.55;;
69246;SDS011;56358;56.328;43.992;2023-04-19T05:31:36;34.20;;;17.70;;
69246;SDS011;56358;56.328;43.992;2023-04-19T05:33:37;35.35;;;17.27;;
69246;SDS011;56358;56.328;43.992;2023-04-19T05:35:38;36.63;;;18.75;;
69246;SDS011;56358;56.328;43.992;2023-04-19T05:37:38;35.28;;;20.08;;
69246;SDS011;56358;56.328;43.992;2023-04-19T05:39:40;35.53;;;19.50;;
69246;SDS011;56358;56.328;43.992;2023-04-19T05:41:41;46.05;;;18.88;;
69246;SDS011;56358;56.328;43.992;2023-04-19T05:43:42;34.92;;;19.33;;
69246;SDS011;56358;56.328;43.992;2023-04-19T05:45:43;49.17;;;26.38;;
69246;SDS011;56358;56.328;43.992;2023-04-19T05:47:44;36.88;;;19.35;;
69246;SDS011;56358;56.328;43.992;2023-04-19T05:49:45;37.35;;;19.58;;
69246;SDS011;56358;56.328;43.992;2023-04-19T05:51:45;35.55;;;20.45;;
69246;SDS011;56358;56.328;43.992;2023-04-19T05:53:46;38.88;;;18.85;;
69246;SDS011;56358;56.328;43.992;2023-04-19T05:55:47;54.15;;;26.42;;
69246;SDS011;56358;56.328;43.992;2023-04-19T05:57:50;48.38;;;20.92;;
69246;SDS011;56358;56.328;43.992;2023-04-19T05:59:50;34.33;;;16.85;;
69246;SDS011;56358;56.328;43.992;2023-04-19T06:01:51;28.83;;;15.07;;
69246;SDS011;56358;56.328;43.992;2023-04-19T06:03:52;24.95;;;11.77;;
69246;SDS011;56358;56.328;43.992;2023-04-19T06:05:53;18.27;;;8.82;;
69246;SDS011;56358;56.328;43.992;2023-04-19T06:07:54;23.65;;;11.23;;
69246;SDS011;56358;56.328;43.992;2023-04-19T06:09:55;20.33;;;11.10;;
69246;SDS011;56358;56.328;43.992;2023-04-19T06:11:56;26.73;;;11.13;;
69246;SDS011;56358;56.328;43.992;2023-04-19T06:13:57;17.13;;;10.77;;
69246;SDS011;56358;56.328;43.992;2023-04-19T06:15:57;22.58;;;12.02;;
69246;SDS011;56358;56.328;43.992;2023-04-19T06:17:58;23.02;;;12.48;;
69246;SDS011;56358;56.328;43.992;2023-04-19T06:19:59;30.25;;;12.30;;
69246;SDS011;56358;56.328;43.992;2023-04-19T06:22:00;24.85;;;12.45;;
69246;SDS011;56358;56.328;43.992;2023-04-19T06:24:01;26.70;;;13.93;;
69246;SDS011;56358;56.328;43.992;2023-04-19T06:26:02;49.63;;;23.40;;
69246;SDS011;56358;56.328;43.992;2023-04-19T06:28:03;30.95;;;17.25;;
69246;SDS011;56358;56.328;43.992;2023-04-19T06:30:04;29.60;;;14.50;;
69246;SDS011;56358;56.328;43.992;2023-04-19T06:32:05;23.65;;;12.30;;
69246;SDS011;56358;56.328;43.992;2023-04-19T06:34:06;27.90;;;12.85;;
69246;SDS011;56358;56.328;43.992;2023-04-19T06:36:07;25.85;;;12.93;;
69246;SDS011;56358;56.328;43.992;2023-04-19T06:38:09;23.75;;;13.43;;
69246;SDS011;56358;56.328;43.992;2023-04-19T06:40:10;43.80;;;20.98;;
69246;SDS011;56358;56.328;43.992;2023-04-19T06:42:11;16.77;;;9.48;;
69246;SDS011;56358;56.328;43.992;2023-04-19T06:44:12;12.98;;;6.03;;
69246;SDS011;56358;56.328;43.992;2023-04-19T06:46:12;17.77;;;8.60;;
69246;SDS011;56358;56.328;43.992;2023-04-19T06:48:13;16.13;;;7.82;;
69246;SDS011;56358;56.328;43.992;2023-04-19T06:50:14;15.98;;;6.85;;
69246;SDS011;56358;56.328;43.992;2023-04-19T06:52:15;16.00;;;8.65;;
69246;SDS011;56358;56.328;43.992;2023-04-19T06:54:15;19.15;;;9.07;;
69246;SDS011;56358;56.328;43.992;2023-04-19T06:56:16;20.30;;;9.98;;
69246;SDS011;56358;56.328;43.992;2023-04-19T06:58:17;22.70;;;10.45;;
69246;SDS011;56358;56.328;43.992;2023-04-19T07:00:17;19.52;;;10.75;;
69246;SDS011;56358;56.328;43.992;2023-04-19T07:02:18;24.08;;;13.00;;
69246;SDS011;56358;56.328;43.992;2023-04-19T07:04:20;29.75;;;12.98;;
69246;SDS011;56358;56.328;43.992;2023-04-19T07:06:20;36.15;;;13.48;;
69246;SDS011;56358;56.328;43.992;2023-04-19T07:08:22;27.55;;;14.25;;
69246;SDS011;56358;56.328;43.992;2023-04-19T07:10:23;28.63;;;13.38;;
69246;SDS011;56358;56.328;43.992;2023-04-19T07:12:24;28.77;;;13.00;;
69246;SDS011;56358;56.328;43.992;2023-04-19T07:14:25;21.05;;;11.25;;
69246;SDS011;56358;56.328;43.992;2023-04-19T07:16:26;22.90;;;10.57;;
69246;SDS011;56358;56.328;43.992;2023-04-19T07:18:27;18.35;;;10.60;;
69246;SDS011;56358;56.328;43.992;2023-04-19T07:20:28;19.35;;;9.45;;
69246;SDS011;56358;56.328;43.992;2023-04-19T07:22:30;15.25;;;8.68;;
69246;SDS011;56358;56.328;43.992;2023-04-19T07:24:31;19.60;;;9.55;;
69246;SDS011;56358;56.328;43.992;2023-04-19T07:26:32;17.42;;;8.50;;
69246;SDS011;56358;56.328;43.992;2023-04-19T07:28:34;26.13;;;9.52;;
69246;SDS011;56358;56.328;43.992;2023-04-19T07:30:35;17.33;;;8.50;;
69246;SDS011;56358;56.328;43.992;2023-04-19T07:32:35;16.33;;;8.13;;
69246;SDS011;56358;56.328;43.992;2023-04-19T07:34:36;15.32;;;7.60;;
69246;SDS011;56358;56.328;43.992;2023-04-19T07:36:37;15.40;;;7.07;;
69246;SDS011;56358;56.328;43.992;2023-04-19T07:38:38;16.23;;;8.20;;
69246;SDS011;56358;56.328;43.992;2023-04-19T07:40:39;21.05;;;11.32;;
69246;SDS011;56358;56.328;43.992;2023-04-19T07:42:41;15.50;;;9.02;;
69246;SDS011;56358;56.328;43.992;2023-04-19T07:44:42;17.38;;;9.02;;
69246;SDS011;56358;56.328;43.992;2023-04-19T07:46:43;14.52;;;8.65;;
69246;SDS011;56358;56.328;43.992;2023-04-19T07:48:46;15.90;;;8.50;;
69246;SDS011;56358;56.328;43.992;2023-04-19T07:50:47;19.42;;;9.50;;
69246;SDS011;56358;56.328;43.992;2023-04-19T07:52:48;21.38;;;8.75;;
69246;SDS011;56358;56.328;43.992;2023-04-19T07:54:49;14.23;;;8.57;;
69246;SDS011;56358;56.328;43.992;2023-04-19T07:56:50;15.80;;;8.80;;
69246;SDS011;56358;56.328;43.992;2023-04-19T07:58:50;17.88;;;8.30;;
69246;SDS011;56358;56.328;43.992;2023-04-19T08:00:51;16.98;;;8.10;;
69246;SDS011;56358;56.328;43.992;2023-04-19T08:02:52;16.35;;;7.97;;
69246;SDS011;56358;56.328;43.992;2023-04-19T08:04:53;11.55;;;7.30;;
69246;SDS011;56358;56.328;43.992;2023-04-19T08:06:53;14.82;;;7.88;;
69246;SDS011;56358;56.328;43.992;2023-04-19T08:08:54;20.70;;;10.82;;
69246;SDS011;56358;56.328;43.992;2023-04-19T08:10:55;20.33;;;10.90;;
69246;SDS011;56358;56.328;43.992;2023-04-19T08:12:56;17.00;;;9.82;;
69246;SDS011;56358;56.328;43.992;2023-04-19T08:14:57;12.00;;;7.47;;
69246;SDS011;56358;56.328;43.992;2023-04-19T08:16:58;17.80;;;9.63;;
69246;SDS011;56358;56.328;43.992;2023-04-19T08:18:58;17.33;;;7.93;;
69246;SDS011;56358;56.328;43.992;2023-04-19T08:20:59;12.23;;;7.03;;
69246;SDS011;56358;56.328;43.992;2023-04-19T08:23:00;13.68;;;6.95;;
69246;SDS011;56358;56.328;43.992;2023-04-19T08:25:05;11.07;;;6.63;;
69246;SDS011;56358;56.328;43.992;2023-04-19T08:27:07;14.35;;;6.60;;
69246;SDS011;56358;56.328;43.992;2023-04-19T08:29:09;11.63;;;6.53;;
69246;SDS011;56358;56.328;43.992;2023-04-19T08:31:10;16.17;;;6.82;;
69246;SDS011;56358;56.328;43.992;2023-04-19T08:33:10;15.48;;;6.20;;
69246;SDS011;56358;56.328;43.992;2023-04-19T08:35:12;11.25;;;6.22;;
69246;SDS011;56358;56.328;43.992;2023-04-19T08:37:14;13.98;;;6.20;;
69246;SDS011;56358;56.328;43.992;2023-04-19T08:39:15;10.90;;;6.00;;
69246;SDS011;56358;56.328;43.992;2023-04-19T08:41:16;11.48;;;5.53;;
69246;SDS011;56358;56.328;43.992;2023-04-19T08:43:19;13.45;;;7.80;;
69246;SDS011;56358;56.328;43.992;2023-04-19T08:45:20;16.17;;;5.60;;
69246;SDS011;56358;56.328;43.992;2023-04-19T08:47:26;10.38;;;5.03;;
69246;SDS011;56358;56.328;43.992;2023-04-19T08:49:27;9.35;;;5.15;;
69246;SDS011;56358;56.328;43.992;2023-04-19T08:51:28;9.43;;;5.28;;
69246;SDS011;56358;56.328;43.992;2023-04-19T08:53:29;10.00;;;4.80;;
69246;SDS011;56358;56.328;43.992;2023-04-19T08:55:29;9.02;;;4.53;;
69246;SDS011;56358;56.328;43.992;2023-04-19T08:57:31;7.85;;;4.82;;
69246;SDS011;56358;56.328;43.992;2023-04-19T08:59:33;11.13;;;5.20;;
69246;SDS011;56358;56.328;43.992;2023-04-19T09:01:34;10.55;;;4.80;;
69246;SDS011;56358;56.328;43.992;2023-04-19T09:03:41;9.63;;;5.40;;
69246;SDS011;56358;56.328;43.992;2023-04-19T09:05:44;9.13;;;4.53;;
69246;SDS011;56358;56.328;43.992;2023-04-19T09:07:45;8.05;;;4.70;;
69246;SDS011;56358;56.328;43.992;2023-04-19T09:09:46;7.40;;;4.57;;
69246;SDS011;56358;56.328;43.992;2023-04-19T09:12:14;9.13;;;5.13;;
69246;SDS011;56358;56.328;43.992;2023-04-19T09:14:17;10.27;;;4.57;;
69246;SDS011;56358;56.328;43.992;2023-04-19T09:16:24;17.33;;;8.35;;
69246;SDS011;56358;56.328;43.992;2023-04-19T09:18:25;8.68;;;5.43;;
69246;SDS011;56358;56.328;43.992;2023-04-19T09:20:34;8.45;;;4.88;;
69246;SDS011;56358;56.328;43.992;2023-04-19T09:22:39;8.05;;;5.28;;
69246;SDS011;56358;56.328;43.992;2023-04-19T09:24:40;8.38;;;4.22;;
69246;SDS011;56358;56.328;43.992;2023-04-19T09:26:43;7.35;;;4.45;;
69246;SDS011;56358;56.328;43.992;2023-04-19T09:33:12;9.20;;;4.75;;
69246;SDS011;56358;56.328;43.992;2023-04-19T09:35:13;36.28;;;17.95;;
69246;SDS011;56358;56.328;43.992;2023-04-19T09:37:14;8.90;;;4.93;;
69246;SDS011;56358;56.328;43.992;2023-04-19T09:39:29;9.40;;;4.82;;
69246;SDS011;56358;56.328;43.992;2023-04-19T09:41:49;9.63;;;4.72;;
69246;SDS011;56358;56.328;43.992;2023-04-19T09:43:53;9.00;;;4.50;;
69246;SDS011;56358;56.328;43.992;2023-04-19T09:46:28;9.50;;;4.80;;
69246;SDS011;56358;56.328;43.992;2023-04-19T09:48:31;8.50;;;4.53;;
69246;SDS011;56358;56.328;43.992;2023-04-19T09:50:32;10.02;;;5.13;;
69246;SDS011;56358;56.328;43.992;2023-04-19T09:52:33;8.68;;;4.40;;
69246;SDS011;56358;56.328;43.992;2023-04-19T09:54:35;7.13;;;4.55;;
69246;SDS011;56358;56.328;43.992;2023-04-19T09:56:36;7.95;;;4.60;;
69246;SDS011;56358;56.328;43.992;2023-04-19T09:58:37;10.27;;;5.30;;
69246;SDS011;56358;56.328;43.992;2023-04-19T10:00:38;9.23;;;6.05;;
69246;SDS011;56358;56.328;43.992;2023-04-19T10:02:40;7.72;;;4.38;;
69246;SDS011;56358;56.328;43.992;2023-04-19T10:04:42;11.23;;;5.00;;
69246;SDS011;56358;56.328;43.992;2023-04-19T10:06:43;8.52;;;5.28;;
69246;SDS011;56358;56.328;43.992;2023-04-19T10:08:44;7.97;;;5.00;;
69246;SDS011;56358;56.328;43.992;2023-04-19T10:10:46;8.85;;;4.53;;
69246;SDS011;56358;56.328;43.992;2023-04-19T10:12:53;7.40;;;4.30;;
69246;SDS011;56358;56.328;43.992;2023-04-19T10:14:55;6.45;;;4.03;;
69246;SDS011;56358;56.328;43.992;2023-04-19T10:16:59;7.57;;;4.18;;
69246;SDS011;56358;56.328;43.992;2023-04-19T10:19:03;7.28;;;4.30;;
69246;SDS011;56358;56.328;43.992;2023-04-19T10:21:08;6.28;;;4.20;;
69246;SDS011;56358;56.328;43.992;2023-04-19T10:23:10;10.05;;;4.30;;
69246;SDS011;56358;56.328;43.992;2023-04-19T10:25:12;7.25;;;4.47;;
69246;SDS011;56358;56.328;43.992;2023-04-19T10:27:17;8.52;;;4.40;;
69246;SDS011;56358;56.328;43.992;2023-04-19T10:32:14;9.07;;;4.38;;
69246;SDS011;56358;56.328;43.992;2023-04-19T10:34:24;8.45;;;4.47;;
69246;SDS011;56358;56.328;43.992;2023-04-19T10:36:36;6.97;;;4.10;;
69246;SDS011;56358;56.328;43.992;2023-04-19T10:38:38;5.90;;;4.18;;
69246;SDS011;56358;56.328;43.992;2023-04-19T10:47:49;10.43;;;4.50;;
69246;SDS011;56358;56.328;43.992;2023-04-19T10:49:51;5.93;;;4.00;;
69246;SDS011;56358;56.328;43.992;2023-04-19T10:51:51;8.13;;;4.63;;
69246;SDS011;56358;56.328;43.992;2023-04-19T10:54:00;7.90;;;4.67;;
69246;SDS011;56358;56.328;43.992;2023-04-19T10:56:05;6.97;;;4.38;;
69246;SDS011;56358;56.328;43.992;2023-04-19T10:58:06;6.88;;;4.30;;
69246;SDS011;56358;56.328;43.992;2023-04-19T11:00:19;7.78;;;4.13;;
69246;SDS011;56358;56.328;43.992;2023-04-19T11:04:22;6.30;;;4.18;;
69246;SDS011;56358;56.328;43.992;2023-04-19T11:08:50;5.45;;;3.92;;
69246;SDS011;56358;56.328;43.992;2023-04-19T11:10:52;7.28;;;3.97;;
69246;SDS011;56358;56.328;43.992;2023-04-19T11:12:56;7.05;;;4.03;;
69246;SDS011;56358;56.328;43.992;2023-04-19T11:14:57;6.38;;;4.40;;
69246;SDS011;56358;56.328;43.992;2023-04-19T11:17:12;7.45;;;4.32;;
69246;SDS011;56358;56.328;43.992;2023-04-19T11:19:24;8.73;;;4.20;;
69246;SDS011;56358;56.328;43.992;2023-04-19T11:21:25;6.47;;;3.75;;
69246;SDS011;56358;56.328;43.992;2023-04-19T11:23:27;8.07;;;4.03;;
69246;SDS011;56358;56.328;43.992;2023-04-19T11:25:28;6.95;;;4.20;;
69246;SDS011;56358;56.328;43.992;2023-04-19T11:27:31;7.18;;;4.05;;
69246;SDS011;56358;56.328;43.992;2023-04-19T11:29:33;9.82;;;5.57;;
69246;SDS011;56358;56.328;43.992;2023-04-19T11:31:33;7.40;;;4.22;;
69246;SDS011;56358;56.328;43.992;2023-04-19T11:33:35;8.98;;;3.75;;
69246;SDS011;56358;56.328;43.992;2023-04-19T11:35:36;6.82;;;3.80;;
69246;SDS011;56358;56.328;43.992;2023-04-19T11:37:37;8.60;;;4.03;;
69246;SDS011;56358;56.328;43.992;2023-04-19T11:39:45;7.75;;;4.05;;
69246;SDS011;56358;56.328;43.992;2023-04-19T11:41:49;9.05;;;4.18;;
69246;SDS011;56358;56.328;43.992;2023-04-19T11:43:50;8.20;;;5.13;;
69246;SDS011;56358;56.328;43.992;2023-04-19T11:45:51;6.28;;;3.80;;
69246;SDS011;56358;56.328;43.992;2023-04-19T11:47:52;7.15;;;3.85;;
69246;SDS011;56358;56.328;43.992;2023-04-19T11:49:55;5.25;;;3.72;;
69246;SDS011;56358;56.328;43.992;2023-04-19T11:52:01;9.27;;;4.47;;
69246;SDS011;56358;56.328;43.992;2023-04-19T11:54:11;8.57;;;4.18;;
69246;SDS011;56358;56.328;43.992;2023-04-19T11:56:13;7.07;;;3.83;;
69246;SDS011;56358;56.328;43.992;2023-04-19T12:00:38;6.55;;;3.75;;
69246;SDS011;56358;56.328;43.992;2023-04-19T12:02:45;6.05;;;3.42;;
69246;SDS011;56358;56.328;43.992;2023-04-19T12:04:46;6.22;;;4.00;;
69246;SDS011;56358;56.328;43.992;2023-04-19T12:06:55;7.35;;;3.88;;
69246;SDS011;56358;56.328;43.992;2023-04-19T12:08:57;9.27;;;3.88;;